sensor_id;sensor_type;location;lat;lon;timestamp;P1;durP1;ratioP1;P2;durP2;ratioP2
69730;SDS011;56996;48.138;11.538;2022-12-19T00:01:36;41.30;;;12.90;;
69730;SDS011;56996;48.138;11.538;2022-12-19T00:04:06;38.80;;;12.60;;
69730;SDS011;56996;48.138;11.538;2022-12-19T00:06:37;40.20;;;12.60;;
69730;SDS011;56996;48.138;11.538;2022-12-19T00:09:10;37.20;;;12.70;;
69730;SDS011;56996;48.138;11.538;2022-12-19T00:11:37;42.90;;;13.20;;
69730;SDS011;56996;48.138;11.538;2022-12-19T00:14:05;37.10;;;12.10;;
69730;SDS011;56996;48.138;11.538;2022-12-19T00:16:32;42.90;;;13.10;;
69730;SDS011;56996;48.138;11.538;2022-12-19T00:19:00;43.70;;;13.70;;
69730;SDS011;56996;48.138;11.538;2022-12-19T00:21:29;40.20;;;13.00;;
69730;SDS011;56996;48.138;11.538;2022-12-19T00:24:04;38.70;;;12.70;;
69730;SDS011;56996;48.138;11.538;2022-12-19T00:26:46;42.60;;;12.80;;
69730;SDS011;56996;48.138;11.538;2022-12-19T00:29:13;38.00;;;12.70;;
69730;SDS011;56996;48.138;11.538;2022-12-19T00:31:40;38.30;;;12.30;;
69730;SDS011;56996;48.138;11.538;2022-12-19T00:34:07;40.10;;;12.60;;
69730;SDS011;56996;48.138;11.538;2022-12-19T00:36:34;33.00;;;10.70;;
69730;SDS011;56996;48.138;11.538;2022-12-19T00:39:03;43.20;;;13.40;;
69730;SDS011;56996;48.138;11.538;2022-12-19T00:41:35;38.90;;;13.10;;
69730;SDS011;56996;48.138;11.538;2022-12-19T00:44:12;34.80;;;12.40;;
69730;SDS011;56996;48.138;11.538;2022-12-19T00:46:39;40.70;;;11.10;;
69730;SDS011;56996;48.138;11.538;2022-12-19T00:49:06;36.50;;;11.80;;
69730;SDS011;56996;48.138;11.538;2022-12-19T00:51:35;21.30;;;8.00;;
69730;SDS011;56996;48.138;11.538;2022-12-19T00:54:03;37.70;;;11.50;;
69730;SDS011;56996;48.138;11.538;2022-12-19T00:56:34;36.00;;;11.70;;
69730;SDS011;56996;48.138;11.538;2022-12-19T00:59:05;39.00;;;11.90;;
69730;SDS011;56996;48.138;11.538;2022-12-19T01:01:36;25.50;;;8.90;;
69730;SDS011;56996;48.138;11.538;2022-12-19T01:04:06;30.70;;;9.90;;
69730;SDS011;56996;48.138;11.538;2022-12-19T01:06:54;33.20;;;11.60;;
69730;SDS011;56996;48.138;11.538;2022-12-19T01:09:32;30.90;;;10.70;;
69730;SDS011;56996;48.138;11.538;2022-12-19T01:12:00;33.60;;;11.50;;
69730;SDS011;56996;48.138;11.538;2022-12-19T01:14:53;33.10;;;11.90;;
69730;SDS011;56996;48.138;11.538;2022-12-19T01:17:29;35.50;;;11.40;;
69730;SDS011;56996;48.138;11.538;2022-12-19T01:19:56;38.30;;;12.70;;
69730;SDS011;56996;48.138;11.538;2022-12-19T01:22:22;39.50;;;12.70;;
69730;SDS011;56996;48.138;11.538;2022-12-19T01:24:49;37.00;;;12.80;;
69730;SDS011;56996;48.138;11.538;2022-12-19T01:27:16;37.80;;;11.90;;
69730;SDS011;56996;48.138;11.538;2022-12-19T01:29:42;34.20;;;12.30;;
69730;SDS011;56996;48.138;11.538;2022-12-19T01:32:20;39.60;;;12.20;;
69730;SDS011;56996;48.138;11.538;2022-12-19T01:34:47;37.30;;;12.30;;
69730;SDS011;56996;48.138;11.538;2022-12-19T01:37:14;38.80;;;12.50;;
69730;SDS011;56996;48.138;11.538;2022-12-19T01:39:41;36.30;;;11.40;;
69730;SDS011;56996;48.138;11.538;2022-12-19T01:42:17;36.20;;;12.70;;
69730;SDS011;56996;48.138;11.538;2022-12-19T01:45:18;33.50;;;10.40;;
69730;SDS011;56996;48.138;11.538;2022-12-19T01:48:06;17.60;;;5.30;;
69730;SDS011;56996;48.138;11.538;2022-12-19T01:50:59;15.50;;;5.40;;
69730;SDS011;56996;48.138;11.538;2022-12-19T01:53:41;24.90;;;8.20;;
69730;SDS011;56996;48.138;11.538;2022-12-19T01:56:17;27.40;;;9.40;;
69730;SDS011;56996;48.138;11.538;2022-12-19T01:58:46;30.90;;;9.90;;
69730;SDS011;56996;48.138;11.538;2022-12-19T02:01:15;23.90;;;6.90;;
69730;SDS011;56996;48.138;11.538;2022-12-19T02:03:44;25.80;;;10.00;;
69730;SDS011;56996;48.138;11.538;2022-12-19T02:06:14;27.80;;;9.10;;
69730;SDS011;56996;48.138;11.538;2022-12-19T02:08:42;29.00;;;10.10;;
69730;SDS011;56996;48.138;11.538;2022-12-19T02:11:10;24.60;;;8.10;;
69730;SDS011;56996;48.138;11.538;2022-12-19T02:13:37;22.80;;;7.10;;
69730;SDS011;56996;48.138;11.538;2022-12-19T02:19:15;24.00;;;7.20;;
69730;SDS011;56996;48.138;11.538;2022-12-19T02:21:54;25.10;;;8.10;;
69730;SDS011;56996;48.138;11.538;2022-12-19T02:24:47;18.10;;;6.10;;
69730;SDS011;56996;48.138;11.538;2022-12-19T02:30:09;25.50;;;8.00;;
69730;SDS011;56996;48.138;11.538;2022-12-19T02:35:53;23.10;;;6.90;;
69730;SDS011;56996;48.138;11.538;2022-12-19T02:41:21;27.40;;;8.30;;
69730;SDS011;56996;48.138;11.538;2022-12-19T02:43:52;22.70;;;7.40;;
69730;SDS011;56996;48.138;11.538;2022-12-19T02:46:25;19.90;;;6.70;;
69730;SDS011;56996;48.138;11.538;2022-12-19T02:48:54;20.50;;;6.30;;
69730;SDS011;56996;48.138;11.538;2022-12-19T02:51:20;24.60;;;7.80;;
69730;SDS011;56996;48.138;11.538;2022-12-19T02:53:47;25.90;;;8.30;;
69730;SDS011;56996;48.138;11.538;2022-12-19T02:56:39;24.20;;;9.40;;
69730;SDS011;56996;48.138;11.538;2022-12-19T03:00:03;27.40;;;9.40;;
69730;SDS011;56996;48.138;11.538;2022-12-19T03:08:51;26.30;;;8.30;;
69730;SDS011;56996;48.138;11.538;2022-12-19T03:11:24;25.50;;;7.70;;
69730;SDS011;56996;48.138;11.538;2022-12-19T03:13:58;26.90;;;10.00;;
69730;SDS011;56996;48.138;11.538;2022-12-19T03:16:27;30.90;;;10.90;;
69730;SDS011;56996;48.138;11.538;2022-12-19T03:18:55;34.20;;;12.80;;
69730;SDS011;56996;48.138;11.538;2022-12-19T03:21:31;33.60;;;12.20;;
69730;SDS011;56996;48.138;11.538;2022-12-19T03:24:03;18.80;;;6.30;;
69730;SDS011;56996;48.138;11.538;2022-12-19T03:26:35;25.30;;;8.40;;
69730;SDS011;56996;48.138;11.538;2022-12-19T03:29:10;26.90;;;9.90;;
69730;SDS011;56996;48.138;11.538;2022-12-19T03:31:38;28.60;;;9.20;;
69730;SDS011;56996;48.138;11.538;2022-12-19T03:34:30;32.60;;;11.30;;
69730;SDS011;56996;48.138;11.538;2022-12-19T03:37:03;36.60;;;12.80;;
69730;SDS011;56996;48.138;11.538;2022-12-19T03:39:33;32.90;;;12.30;;
69730;SDS011;56996;48.138;11.538;2022-12-19T03:42:01;36.00;;;13.00;;
69730;SDS011;56996;48.138;11.538;2022-12-19T03:44:49;24.10;;;8.40;;
69730;SDS011;56996;48.138;11.538;2022-12-19T03:47:47;35.80;;;12.50;;
69730;SDS011;56996;48.138;11.538;2022-12-19T03:50:17;35.70;;;13.00;;
69730;SDS011;56996;48.138;11.538;2022-12-19T03:52:55;39.10;;;13.00;;
69730;SDS011;56996;48.138;11.538;2022-12-19T03:55:33;34.90;;;12.70;;
69730;SDS011;56996;48.138;11.538;2022-12-19T03:58:23;39.20;;;13.10;;
69730;SDS011;56996;48.138;11.538;2022-12-19T04:00:54;30.60;;;11.00;;
69730;SDS011;56996;48.138;11.538;2022-12-19T04:03:24;35.70;;;12.00;;
69730;SDS011;56996;48.138;11.538;2022-12-19T04:05:52;31.20;;;10.30;;
69730;SDS011;56996;48.138;11.538;2022-12-19T04:08:20;34.40;;;12.60;;
69730;SDS011;56996;48.138;11.538;2022-12-19T04:10:53;26.00;;;9.80;;
69730;SDS011;56996;48.138;11.538;2022-12-19T04:13:28;32.80;;;11.90;;
69730;SDS011;56996;48.138;11.538;2022-12-19T04:18:37;33.60;;;12.30;;
69730;SDS011;56996;48.138;11.538;2022-12-19T04:21:12;33.60;;;11.70;;
69730;SDS011;56996;48.138;11.538;2022-12-19T04:23:46;28.40;;;10.00;;
69730;SDS011;56996;48.138;11.538;2022-12-19T04:26:18;39.60;;;13.50;;
69730;SDS011;56996;48.138;11.538;2022-12-19T04:28:49;35.70;;;12.70;;
69730;SDS011;56996;48.138;11.538;2022-12-19T04:31:19;36.50;;;11.40;;
69730;SDS011;56996;48.138;11.538;2022-12-19T04:33:46;39.60;;;12.30;;
69730;SDS011;56996;48.138;11.538;2022-12-19T04:36:13;27.50;;;10.20;;
69730;SDS011;56996;48.138;11.538;2022-12-19T04:38:39;34.40;;;12.80;;
69730;SDS011;56996;48.138;11.538;2022-12-19T04:41:06;31.00;;;10.90;;
69730;SDS011;56996;48.138;11.538;2022-12-19T04:43:33;36.50;;;12.80;;
69730;SDS011;56996;48.138;11.538;2022-12-19T04:46:00;35.60;;;13.00;;
69730;SDS011;56996;48.138;11.538;2022-12-19T04:48:26;35.60;;;12.20;;
69730;SDS011;56996;48.138;11.538;2022-12-19T04:50:54;37.40;;;12.30;;
69730;SDS011;56996;48.138;11.538;2022-12-19T04:53:21;23.00;;;7.40;;
69730;SDS011;56996;48.138;11.538;2022-12-19T04:55:48;39.90;;;12.90;;
69730;SDS011;56996;48.138;11.538;2022-12-19T04:58:15;37.10;;;12.10;;
69730;SDS011;56996;48.138;11.538;2022-12-19T05:00:47;37.30;;;12.90;;
69730;SDS011;56996;48.138;11.538;2022-12-19T05:03:14;40.40;;;13.30;;
69730;SDS011;56996;48.138;11.538;2022-12-19T05:05:41;37.10;;;12.30;;
69730;SDS011;56996;48.138;11.538;2022-12-19T05:08:08;40.60;;;13.00;;
69730;SDS011;56996;48.138;11.538;2022-12-19T05:10:35;42.80;;;13.30;;
69730;SDS011;56996;48.138;11.538;2022-12-19T05:13:02;36.20;;;13.20;;
69730;SDS011;56996;48.138;11.538;2022-12-19T05:15:29;37.00;;;12.90;;
69730;SDS011;56996;48.138;11.538;2022-12-19T05:17:56;34.50;;;12.30;;
69730;SDS011;56996;48.138;11.538;2022-12-19T05:20:23;32.20;;;9.50;;
69730;SDS011;56996;48.138;11.538;2022-12-19T05:22:49;20.30;;;7.30;;
69730;SDS011;56996;48.138;11.538;2022-12-19T05:25:16;28.70;;;8.80;;
69730;SDS011;56996;48.138;11.538;2022-12-19T05:27:42;23.90;;;7.30;;
69730;SDS011;56996;48.138;11.538;2022-12-19T05:30:10;26.40;;;8.40;;
69730;SDS011;56996;48.138;11.538;2022-12-19T05:32:36;39.30;;;12.20;;
69730;SDS011;56996;48.138;11.538;2022-12-19T05:35:03;32.60;;;10.30;;
69730;SDS011;56996;48.138;11.538;2022-12-19T05:37:30;34.00;;;11.40;;
69730;SDS011;56996;48.138;11.538;2022-12-19T05:39:57;31.70;;;10.50;;
69730;SDS011;56996;48.138;11.538;2022-12-19T05:42:24;36.00;;;11.80;;
69730;SDS011;56996;48.138;11.538;2022-12-19T05:44:51;32.70;;;11.90;;
69730;SDS011;56996;48.138;11.538;2022-12-19T05:47:18;30.70;;;10.50;;
69730;SDS011;56996;48.138;11.538;2022-12-19T05:49:47;36.00;;;12.00;;
69730;SDS011;56996;48.138;11.538;2022-12-19T05:52:14;34.60;;;11.10;;
69730;SDS011;56996;48.138;11.538;2022-12-19T05:54:41;29.00;;;9.60;;
69730;SDS011;56996;48.138;11.538;2022-12-19T05:57:07;28.00;;;10.60;;
69730;SDS011;56996;48.138;11.538;2022-12-19T05:59:34;33.80;;;11.80;;
69730;SDS011;56996;48.138;11.538;2022-12-19T06:02:01;32.40;;;11.40;;
69730;SDS011;56996;48.138;11.538;2022-12-19T06:04:28;30.10;;;10.10;;
69730;SDS011;56996;48.138;11.538;2022-12-19T06:06:55;32.20;;;10.90;;
69730;SDS011;56996;48.138;11.538;2022-12-19T06:09:22;34.60;;;11.50;;
69730;SDS011;56996;48.138;11.538;2022-12-19T06:11:49;34.90;;;12.30;;
69730;SDS011;56996;48.138;11.538;2022-12-19T06:14:16;35.70;;;11.70;;
69730;SDS011;56996;48.138;11.538;2022-12-19T06:16:43;35.30;;;12.30;;
69730;SDS011;56996;48.138;11.538;2022-12-19T06:19:09;31.50;;;11.20;;
69730;SDS011;56996;48.138;11.538;2022-12-19T06:21:36;32.70;;;11.00;;
69730;SDS011;56996;48.138;11.538;2022-12-19T06:24:13;32.80;;;12.00;;
69730;SDS011;56996;48.138;11.538;2022-12-19T06:26:40;35.40;;;11.10;;
69730;SDS011;56996;48.138;11.538;2022-12-19T06:29:06;26.10;;;8.80;;
69730;SDS011;56996;48.138;11.538;2022-12-19T06:31:33;32.30;;;11.70;;
69730;SDS011;56996;48.138;11.538;2022-12-19T06:34:00;48.60;;;19.00;;
69730;SDS011;56996;48.138;11.538;2022-12-19T06:36:29;30.80;;;11.70;;
69730;SDS011;56996;48.138;11.538;2022-12-19T06:38:57;30.00;;;10.50;;
69730;SDS011;56996;48.138;11.538;2022-12-19T06:41:24;28.50;;;9.90;;
69730;SDS011;56996;48.138;11.538;2022-12-19T06:44:12;19.90;;;7.60;;
69730;SDS011;56996;48.138;11.538;2022-12-19T06:46:41;32.70;;;10.70;;
69730;SDS011;56996;48.138;11.538;2022-12-19T06:49:09;33.50;;;11.50;;
69730;SDS011;56996;48.138;11.538;2022-12-19T06:51:36;30.90;;;10.30;;
69730;SDS011;56996;48.138;11.538;2022-12-19T06:54:03;32.80;;;10.80;;
69730;SDS011;56996;48.138;11.538;2022-12-19T06:56:37;35.90;;;11.60;;
69730;SDS011;56996;48.138;11.538;2022-12-19T06:59:06;33.40;;;11.10;;
69730;SDS011;56996;48.138;11.538;2022-12-19T07:01:58;30.80;;;11.00;;
69730;SDS011;56996;48.138;11.538;2022-12-19T07:04:30;25.00;;;9.10;;
69730;SDS011;56996;48.138;11.538;2022-12-19T07:07:18;30.30;;;10.50;;
69730;SDS011;56996;48.138;11.538;2022-12-19T07:09:45;34.90;;;12.00;;
69730;SDS011;56996;48.138;11.538;2022-12-19T07:12:11;32.80;;;12.10;;
69730;SDS011;56996;48.138;11.538;2022-12-19T07:14:38;33.00;;;11.90;;
69730;SDS011;56996;48.138;11.538;2022-12-19T07:17:05;31.80;;;11.60;;
69730;SDS011;56996;48.138;11.538;2022-12-19T07:19:32;28.40;;;10.60;;
69730;SDS011;56996;48.138;11.538;2022-12-19T07:22:01;33.70;;;11.80;;
69730;SDS011;56996;48.138;11.538;2022-12-19T07:24:28;45.00;;;16.20;;
69730;SDS011;56996;48.138;11.538;2022-12-19T07:26:56;27.90;;;10.40;;
69730;SDS011;56996;48.138;11.538;2022-12-19T07:29:23;29.00;;;9.10;;
69730;SDS011;56996;48.138;11.538;2022-12-19T07:31:50;29.60;;;10.90;;
69730;SDS011;56996;48.138;11.538;2022-12-19T07:34:16;24.10;;;8.30;;
69730;SDS011;56996;48.138;11.538;2022-12-19T07:36:43;23.40;;;7.30;;
69730;SDS011;56996;48.138;11.538;2022-12-19T07:39:10;28.10;;;9.80;;
69730;SDS011;56996;48.138;11.538;2022-12-19T07:41:37;28.80;;;9.90;;
69730;SDS011;56996;48.138;11.538;2022-12-19T07:44:05;29.40;;;10.80;;
69730;SDS011;56996;48.138;11.538;2022-12-19T07:46:32;25.70;;;9.30;;
69730;SDS011;56996;48.138;11.538;2022-12-19T07:48:59;35.10;;;14.40;;
69730;SDS011;56996;48.138;11.538;2022-12-19T07:51:27;28.60;;;9.60;;
69730;SDS011;56996;48.138;11.538;2022-12-19T07:53:53;30.00;;;11.10;;
69730;SDS011;56996;48.138;11.538;2022-12-19T07:56:20;30.50;;;10.30;;
69730;SDS011;56996;48.138;11.538;2022-12-19T07:58:47;29.00;;;10.50;;
69730;SDS011;56996;48.138;11.538;2022-12-19T08:01:14;31.70;;;11.40;;
69730;SDS011;56996;48.138;11.538;2022-12-19T08:03:41;28.90;;;10.80;;
69730;SDS011;56996;48.138;11.538;2022-12-19T08:06:08;31.00;;;11.00;;
69730;SDS011;56996;48.138;11.538;2022-12-19T08:08:35;28.40;;;10.30;;
69730;SDS011;56996;48.138;11.538;2022-12-19T08:11:08;28.10;;;10.20;;
69730;SDS011;56996;48.138;11.538;2022-12-19T08:13:36;28.00;;;9.90;;
69730;SDS011;56996;48.138;11.538;2022-12-19T08:16:11;28.30;;;9.80;;
69730;SDS011;56996;48.138;11.538;2022-12-19T08:18:38;33.50;;;15.90;;
69730;SDS011;56996;48.138;11.538;2022-12-19T08:21:06;27.20;;;10.40;;
69730;SDS011;56996;48.138;11.538;2022-12-19T08:23:34;25.00;;;9.70;;
69730;SDS011;56996;48.138;11.538;2022-12-19T08:26:07;27.30;;;9.30;;
69730;SDS011;56996;48.138;11.538;2022-12-19T08:28:38;25.20;;;10.20;;
69730;SDS011;56996;48.138;11.538;2022-12-19T08:31:12;27.70;;;10.10;;
69730;SDS011;56996;48.138;11.538;2022-12-19T08:33:41;24.00;;;8.90;;
69730;SDS011;56996;48.138;11.538;2022-12-19T08:36:11;17.50;;;6.30;;
69730;SDS011;56996;48.138;11.538;2022-12-19T08:38:39;24.70;;;9.30;;
69730;SDS011;56996;48.138;11.538;2022-12-19T08:41:07;22.20;;;8.80;;
69730;SDS011;56996;48.138;11.538;2022-12-19T08:43:34;22.90;;;8.60;;
69730;SDS011;56996;48.138;11.538;2022-12-19T08:46:01;18.80;;;7.00;;
69730;SDS011;56996;48.138;11.538;2022-12-19T08:48:30;23.10;;;9.00;;
69730;SDS011;56996;48.138;11.538;2022-12-19T08:50:59;54.40;;;26.40;;
69730;SDS011;56996;48.138;11.538;2022-12-19T08:53:30;23.60;;;9.40;;
69730;SDS011;56996;48.138;11.538;2022-12-19T08:56:00;21.50;;;8.60;;
69730;SDS011;56996;48.138;11.538;2022-12-19T08:58:33;21.10;;;7.90;;
69730;SDS011;56996;48.138;11.538;2022-12-19T09:01:01;19.10;;;7.80;;
69730;SDS011;56996;48.138;11.538;2022-12-19T09:03:31;27.10;;;11.90;;
69730;SDS011;56996;48.138;11.538;2022-12-19T09:06:18;22.90;;;8.20;;
69730;SDS011;56996;48.138;11.538;2022-12-19T09:08:46;26.10;;;13.00;;
69730;SDS011;56996;48.138;11.538;2022-12-19T09:11:16;18.30;;;7.40;;
69730;SDS011;56996;48.138;11.538;2022-12-19T09:13:45;18.10;;;7.10;;
69730;SDS011;56996;48.138;11.538;2022-12-19T09:16:20;17.20;;;7.20;;
69730;SDS011;56996;48.138;11.538;2022-12-19T09:18:50;19.50;;;7.20;;
69730;SDS011;56996;48.138;11.538;2022-12-19T09:21:21;18.00;;;7.10;;
69730;SDS011;56996;48.138;11.538;2022-12-19T09:23:51;17.20;;;6.60;;
69730;SDS011;56996;48.138;11.538;2022-12-19T09:26:24;15.90;;;6.10;;
69730;SDS011;56996;48.138;11.538;2022-12-19T09:28:58;17.30;;;6.90;;
69730;SDS011;56996;48.138;11.538;2022-12-19T09:31:27;16.00;;;7.10;;
69730;SDS011;56996;48.138;11.538;2022-12-19T09:33:54;16.20;;;6.50;;
69730;SDS011;56996;48.138;11.538;2022-12-19T09:36:23;14.80;;;5.60;;
69730;SDS011;56996;48.138;11.538;2022-12-19T09:38:55;12.20;;;4.90;;
69730;SDS011;56996;48.138;11.538;2022-12-19T09:47:59;13.70;;;5.20;;
69730;SDS011;56996;48.138;11.538;2022-12-19T09:54:01;12.80;;;4.80;;
69730;SDS011;56996;48.138;11.538;2022-12-19T09:56:36;14.70;;;6.00;;
69730;SDS011;56996;48.138;11.538;2022-12-19T09:59:21;18.40;;;7.60;;
69730;SDS011;56996;48.138;11.538;2022-12-19T10:05:08;15.60;;;5.80;;
69730;SDS011;56996;48.138;11.538;2022-12-19T10:07:59;19.40;;;8.10;;
69730;SDS011;56996;48.138;11.538;2022-12-19T10:10:48;17.30;;;7.10;;
69730;SDS011;56996;48.138;11.538;2022-12-19T10:20:18;16.00;;;6.70;;
69730;SDS011;56996;48.138;11.538;2022-12-19T10:23:18;16.20;;;7.40;;
69730;SDS011;56996;48.138;11.538;2022-12-19T10:26:17;14.70;;;6.30;;
69730;SDS011;56996;48.138;11.538;2022-12-19T10:29:09;14.00;;;6.30;;
69730;SDS011;56996;48.138;11.538;2022-12-19T10:31:57;17.10;;;6.90;;
69730;SDS011;56996;48.138;11.538;2022-12-19T10:34:42;13.50;;;6.50;;
69730;SDS011;56996;48.138;11.538;2022-12-19T10:38:03;14.10;;;5.60;;
69730;SDS011;56996;48.138;11.538;2022-12-19T10:40:32;14.90;;;6.80;;
69730;SDS011;56996;48.138;11.538;2022-12-19T10:43:21;18.30;;;8.50;;
69730;SDS011;56996;48.138;11.538;2022-12-19T10:46:02;15.70;;;7.00;;
69730;SDS011;56996;48.138;11.538;2022-12-19T10:48:38;17.20;;;7.40;;
69730;SDS011;56996;48.138;11.538;2022-12-19T10:51:18;14.00;;;5.80;;
69730;SDS011;56996;48.138;11.538;2022-12-19T10:53:56;15.90;;;7.40;;
69730;SDS011;56996;48.138;11.538;2022-12-19T10:56:30;16.30;;;7.60;;
69730;SDS011;56996;48.138;11.538;2022-12-19T10:59:15;18.90;;;8.40;;
69730;SDS011;56996;48.138;11.538;2022-12-19T11:01:44;28.70;;;13.80;;
69730;SDS011;56996;48.138;11.538;2022-12-19T11:04:32;15.80;;;7.30;;
69730;SDS011;56996;48.138;11.538;2022-12-19T11:09:37;15.10;;;6.70;;
69730;SDS011;56996;48.138;11.538;2022-12-19T11:15:12;11.90;;;5.60;;
69730;SDS011;56996;48.138;11.538;2022-12-19T11:18:10;12.90;;;6.10;;
69730;SDS011;56996;48.138;11.538;2022-12-19T11:21:00;12.30;;;5.20;;
69730;SDS011;56996;48.138;11.538;2022-12-19T11:26:48;15.40;;;6.50;;
69730;SDS011;56996;48.138;11.538;2022-12-19T11:29:46;16.90;;;7.20;;
69730;SDS011;56996;48.138;11.538;2022-12-19T11:32:37;15.70;;;7.30;;
69730;SDS011;56996;48.138;11.538;2022-12-19T11:37:56;13.70;;;6.00;;
69730;SDS011;56996;48.138;11.538;2022-12-19T11:40:52;15.80;;;6.50;;
69730;SDS011;56996;48.138;11.538;2022-12-19T11:43:34;34.80;;;19.00;;
69730;SDS011;56996;48.138;11.538;2022-12-19T11:46:28;17.90;;;7.50;;
69730;SDS011;56996;48.138;11.538;2022-12-19T11:49:40;13.00;;;5.10;;
69730;SDS011;56996;48.138;11.538;2022-12-19T11:52:23;13.90;;;5.50;;
69730;SDS011;56996;48.138;11.538;2022-12-19T11:58:48;10.30;;;4.40;;
69730;SDS011;56996;48.138;11.538;2022-12-19T12:01:37;10.80;;;4.50;;
69730;SDS011;56996;48.138;11.538;2022-12-19T12:07:35;10.70;;;4.80;;
69730;SDS011;56996;48.138;11.538;2022-12-19T12:10:23;10.50;;;4.60;;
69730;SDS011;56996;48.138;11.538;2022-12-19T12:13:41;11.60;;;4.60;;
69730;SDS011;56996;48.138;11.538;2022-12-19T12:16:47;8.60;;;3.50;;
69730;SDS011;56996;48.138;11.538;2022-12-19T12:19:47;11.60;;;4.50;;
69730;SDS011;56996;48.138;11.538;2022-12-19T12:29:32;25.60;;;14.70;;
69730;SDS011;56996;48.138;11.538;2022-12-19T12:33:01;18.00;;;6.70;;
69730;SDS011;56996;48.138;11.538;2022-12-19T12:35:57;14.40;;;6.40;;
69730;SDS011;56996;48.138;11.538;2022-12-19T12:44:56;15.30;;;6.60;;
69730;SDS011;56996;48.138;11.538;2022-12-19T12:47:27;12.60;;;6.00;;
69730;SDS011;56996;48.138;11.538;2022-12-19T12:50:03;17.80;;;5.60;;
69730;SDS011;56996;48.138;11.538;2022-12-19T12:52:39;14.80;;;6.40;;
69730;SDS011;56996;48.138;11.538;2022-12-19T12:55:19;21.50;;;11.00;;
69730;SDS011;56996;48.138;11.538;2022-12-19T12:57:48;15.80;;;8.00;;
69730;SDS011;56996;48.138;11.538;2022-12-19T13:00:26;15.10;;;7.00;;
69730;SDS011;56996;48.138;11.538;2022-12-19T13:03:17;15.80;;;7.00;;
69730;SDS011;56996;48.138;11.538;2022-12-19T13:08:36;17.50;;;7.60;;
69730;SDS011;56996;48.138;11.538;2022-12-19T13:11:12;15.80;;;7.40;;
69730;SDS011;56996;48.138;11.538;2022-12-19T13:14:01;15.30;;;6.70;;
69730;SDS011;56996;48.138;11.538;2022-12-19T13:35:01;15.20;;;7.20;;
69730;SDS011;56996;48.138;11.538;2022-12-19T13:41:28;19.10;;;10.20;;
69730;SDS011;56996;48.138;11.538;2022-12-19T13:44:30;22.30;;;9.40;;
69730;SDS011;56996;48.138;11.538;2022-12-19T13:47:04;17.60;;;8.80;;
69730;SDS011;56996;48.138;11.538;2022-12-19T13:49:32;18.10;;;8.20;;
69730;SDS011;56996;48.138;11.538;2022-12-19T13:52:02;15.70;;;7.60;;
69730;SDS011;56996;48.138;11.538;2022-12-19T13:54:35;17.20;;;8.00;;
69730;SDS011;56996;48.138;11.538;2022-12-19T13:57:20;16.30;;;8.20;;
69730;SDS011;56996;48.138;11.538;2022-12-19T13:59:51;15.10;;;6.80;;
69730;SDS011;56996;48.138;11.538;2022-12-19T14:02:50;16.10;;;7.60;;
69730;SDS011;56996;48.138;11.538;2022-12-19T14:05:25;16.00;;;7.50;;
69730;SDS011;56996;48.138;11.538;2022-12-19T14:08:19;14.60;;;6.60;;
69730;SDS011;56996;48.138;11.538;2022-12-19T14:10:48;14.90;;;6.30;;
69730;SDS011;56996;48.138;11.538;2022-12-19T14:13:43;15.10;;;6.20;;
69730;SDS011;56996;48.138;11.538;2022-12-19T14:16:40;12.50;;;5.60;;
69730;SDS011;56996;48.138;11.538;2022-12-19T14:19:24;17.10;;;8.60;;
69730;SDS011;56996;48.138;11.538;2022-12-19T14:21:51;14.70;;;6.70;;
69730;SDS011;56996;48.138;11.538;2022-12-19T14:24:33;20.10;;;8.00;;
69730;SDS011;56996;48.138;11.538;2022-12-19T14:27:07;16.30;;;7.30;;
69730;SDS011;56996;48.138;11.538;2022-12-19T14:29:58;18.50;;;9.10;;
69730;SDS011;56996;48.138;11.538;2022-12-19T14:32:47;24.00;;;9.80;;
69730;SDS011;56996;48.138;11.538;2022-12-19T14:35:44;22.60;;;9.70;;
69730;SDS011;56996;48.138;11.538;2022-12-19T14:38:34;22.00;;;9.50;;
69730;SDS011;56996;48.138;11.538;2022-12-19T14:44:15;19.70;;;8.40;;
69730;SDS011;56996;48.138;11.538;2022-12-19T14:47:10;20.80;;;9.50;;
69730;SDS011;56996;48.138;11.538;2022-12-19T14:49:58;22.40;;;9.70;;
69730;SDS011;56996;48.138;11.538;2022-12-19T14:52:45;20.40;;;8.40;;
69730;SDS011;56996;48.138;11.538;2022-12-19T14:55:36;20.30;;;9.20;;
69730;SDS011;56996;48.138;11.538;2022-12-19T14:58:31;22.20;;;10.50;;
69730;SDS011;56996;48.138;11.538;2022-12-19T15:04:11;20.20;;;8.80;;
69730;SDS011;56996;48.138;11.538;2022-12-19T15:07:04;25.10;;;9.70;;
69730;SDS011;56996;48.138;11.538;2022-12-19T15:09:57;25.50;;;10.80;;
69730;SDS011;56996;48.138;11.538;2022-12-19T15:12:54;21.00;;;9.00;;
69730;SDS011;56996;48.138;11.538;2022-12-19T15:16:04;19.60;;;8.40;;
69730;SDS011;56996;48.138;11.538;2022-12-19T15:21:02;27.50;;;12.50;;
69730;SDS011;56996;48.138;11.538;2022-12-19T15:23:31;25.80;;;11.90;;
69730;SDS011;56996;48.138;11.538;2022-12-19T15:26:03;26.00;;;12.00;;
69730;SDS011;56996;48.138;11.538;2022-12-19T15:28:39;28.40;;;12.40;;
69730;SDS011;56996;48.138;11.538;2022-12-19T15:31:35;27.90;;;12.10;;
69730;SDS011;56996;48.138;11.538;2022-12-19T15:37:11;25.30;;;11.40;;
69730;SDS011;56996;48.138;11.538;2022-12-19T15:39:39;31.60;;;13.00;;
69730;SDS011;56996;48.138;11.538;2022-12-19T15:42:17;27.30;;;12.90;;
69730;SDS011;56996;48.138;11.538;2022-12-19T15:44:48;25.30;;;12.00;;
69730;SDS011;56996;48.138;11.538;2022-12-19T15:47:18;24.00;;;10.60;;
69730;SDS011;56996;48.138;11.538;2022-12-19T15:49:49;27.00;;;11.00;;
69730;SDS011;56996;48.138;11.538;2022-12-19T15:52:17;25.20;;;11.40;;
69730;SDS011;56996;48.138;11.538;2022-12-19T15:54:45;24.50;;;11.80;;
69730;SDS011;56996;48.138;11.538;2022-12-19T15:59:56;36.70;;;15.00;;
69730;SDS011;56996;48.138;11.538;2022-12-19T16:02:49;31.50;;;14.20;;
69730;SDS011;56996;48.138;11.538;2022-12-19T16:05:37;28.60;;;11.90;;
69730;SDS011;56996;48.138;11.538;2022-12-19T16:08:16;27.10;;;12.60;;
69730;SDS011;56996;48.138;11.538;2022-12-19T16:10:49;28.70;;;12.50;;
69730;SDS011;56996;48.138;11.538;2022-12-19T16:13:29;24.30;;;10.70;;
69730;SDS011;56996;48.138;11.538;2022-12-19T16:15:57;24.70;;;11.40;;
69730;SDS011;56996;48.138;11.538;2022-12-19T16:18:24;24.80;;;11.10;;
69730;SDS011;56996;48.138;11.538;2022-12-19T16:20:50;25.60;;;10.90;;
69730;SDS011;56996;48.138;11.538;2022-12-19T16:23:17;29.60;;;12.70;;
69730;SDS011;56996;48.138;11.538;2022-12-19T16:25:47;30.70;;;13.10;;
69730;SDS011;56996;48.138;11.538;2022-12-19T16:30:56;23.90;;;11.30;;
69730;SDS011;56996;48.138;11.538;2022-12-19T16:33:28;25.20;;;11.80;;
69730;SDS011;56996;48.138;11.538;2022-12-19T16:35:56;26.10;;;12.10;;
69730;SDS011;56996;48.138;11.538;2022-12-19T16:38:33;22.60;;;10.40;;
69730;SDS011;56996;48.138;11.538;2022-12-19T16:41:01;26.80;;;12.90;;
69730;SDS011;56996;48.138;11.538;2022-12-19T16:43:35;27.70;;;12.10;;
69730;SDS011;56996;48.138;11.538;2022-12-19T16:46:05;23.90;;;11.20;;
69730;SDS011;56996;48.138;11.538;2022-12-19T16:48:32;30.60;;;14.20;;
69730;SDS011;56996;48.138;11.538;2022-12-19T16:51:01;30.20;;;14.10;;
69730;SDS011;56996;48.138;11.538;2022-12-19T16:53:28;33.00;;;16.20;;
69730;SDS011;56996;48.138;11.538;2022-12-19T16:55:55;34.90;;;16.30;;